sensor_id;sensor_type;location;lat;lon;timestamp;pressure;altitude;pressure_sealevel;temperature;humidity
76547;BME280;65390;53.014;8.886;2022-12-24T00:03:39;100269.09;;;6.16;100.00
76547;BME280;65390;53.014;8.886;2022-12-24T00:06:38;100260.41;;;6.28;100.00
76547;BME280;65390;53.014;8.886;2022-12-24T00:12:20;100241.84;;;6.26;100.00
76547;BME280;65390;53.014;8.886;2022-12-24T00:14:54;100255.50;;;6.36;100.00
76547;BME280;65390;53.014;8.886;2022-12-24T00:17:22;100264.59;;;6.48;100.00
76547;BME280;65390;53.014;8.886;2022-12-24T00:19:56;100250.59;;;6.44;100.00
76547;BME280;65390;53.014;8.886;2022-12-24T00:22:42;100269.56;;;6.54;100.00
76547;BME280;65390;53.014;8.886;2022-12-24T00:25:10;100243.50;;;6.29;100.00
76547;BME280;65390;53.014;8.886;2022-12-24T00:28:09;100266.91;;;6.54;100.00
76547;BME280;65390;53.014;8.886;2022-12-24T00:30:49;100258.34;;;6.33;100.00
76547;BME280;65390;53.014;8.886;2022-12-24T00:33:17;100259.47;;;6.29;100.00
76547;BME280;65390;53.014;8.886;2022-12-24T00:35:54;100252.84;;;6.36;100.00
76547;BME280;65390;53.014;8.886;2022-12-24T00:38:32;100204.81;;;5.92;100.00
76547;BME280;65390;53.014;8.886;2022-12-24T00:41:16;100274.16;;;6.04;100.00
76547;BME280;65390;53.014;8.886;2022-12-24T00:44:04;100282.47;;;5.98;100.00
76547;BME280;65390;53.014;8.886;2022-12-24T00:47:06;100236.53;;;5.79;100.00
76547;BME280;65390;53.014;8.886;2022-12-24T00:49:48;100224.38;;;5.75;100.00
76547;BME280;65390;53.014;8.886;2022-12-24T00:52:25;100286.94;;;6.14;100.00
76547;BME280;65390;53.014;8.886;2022-12-24T00:54:50;100284.34;;;6.28;100.00
76547;BME280;65390;53.014;8.886;2022-12-24T00:57:16;100259.03;;;6.05;100.00
76547;BME280;65390;53.014;8.886;2022-12-24T00:59:41;100300.16;;;6.31;100.00
76547;BME280;65390;53.014;8.886;2022-12-24T01:02:07;100282.22;;;6.34;100.00
76547;BME280;65390;53.014;8.886;2022-12-24T01:04:35;100303.81;;;6.44;100.00
76547;BME280;65390;53.014;8.886;2022-12-24T01:07:24;100278.13;;;6.13;100.00
76547;BME280;65390;53.014;8.886;2022-12-24T01:09:53;100257.81;;;5.79;100.00
76547;BME280;65390;53.014;8.886;2022-12-24T01:12:21;100306.66;;;5.94;100.00
76547;BME280;65390;53.014;8.886;2022-12-24T01:14:55;100314.31;;;6.00;100.00
76547;BME280;65390;53.014;8.886;2022-12-24T01:17:24;100290.63;;;5.95;100.00
76547;BME280;65390;53.014;8.886;2022-12-24T01:19:58;100312.53;;;6.32;100.00
76547;BME280;65390;53.014;8.886;2022-12-24T01:22:26;100260.53;;;6.11;100.00
76547;BME280;65390;53.014;8.886;2022-12-24T01:28:17;100326.91;;;6.28;100.00
76547;BME280;65390;53.014;8.886;2022-12-24T01:30:56;100308.22;;;5.98;100.00
76547;BME280;65390;53.014;8.886;2022-12-24T01:33:55;100324.59;;;6.06;100.00
76547;BME280;65390;53.014;8.886;2022-12-24T01:36:37;100296.38;;;5.70;100.00
76547;BME280;65390;53.014;8.886;2022-12-24T01:39:10;100301.59;;;5.72;100.00
76547;BME280;65390;53.014;8.886;2022-12-24T01:49:13;100304.69;;;5.64;100.00
76547;BME280;65390;53.014;8.886;2022-12-24T01:51:57;100347.00;;;5.85;100.00
76547;BME280;65390;53.014;8.886;2022-12-24T01:54:36;100345.88;;;6.06;100.00
76547;BME280;65390;53.014;8.886;2022-12-24T01:57:32;100338.09;;;6.34;100.00
76547;BME280;65390;53.014;8.886;2022-12-24T02:00:11;100351.81;;;6.43;100.00
76547;BME280;65390;53.014;8.886;2022-12-24T02:05:54;100323.41;;;6.27;100.00
76547;BME280;65390;53.014;8.886;2022-12-24T02:08:30;100345.47;;;6.45;100.00
76547;BME280;65390;53.014;8.886;2022-12-24T02:11:28;100300.47;;;6.09;100.00
76547;BME280;65390;53.014;8.886;2022-12-24T02:14:03;100356.38;;;6.41;100.00
76547;BME280;65390;53.014;8.886;2022-12-24T02:16:58;100326.06;;;6.27;100.00
76547;BME280;65390;53.014;8.886;2022-12-24T02:23:05;100365.56;;;6.66;100.00
76547;BME280;65390;53.014;8.886;2022-12-24T02:29:03;100318.09;;;6.43;100.00
76547;BME280;65390;53.014;8.886;2022-12-24T02:32:04;100371.56;;;6.70;100.00
76547;BME280;65390;53.014;8.886;2022-12-24T02:34:48;100320.91;;;6.40;100.00
76547;BME280;65390;53.014;8.886;2022-12-24T02:37:49;100336.44;;;6.63;100.00
76547;BME280;65390;53.014;8.886;2022-12-24T02:40:30;100381.38;;;6.85;100.00
76547;BME280;65390;53.014;8.886;2022-12-24T02:43:03;100376.53;;;6.92;100.00
76547;BME280;65390;53.014;8.886;2022-12-24T02:45:35;100373.34;;;7.01;100.00
76547;BME280;65390;53.014;8.886;2022-12-24T02:48:08;100363.97;;;6.94;100.00
76547;BME280;65390;53.014;8.886;2022-12-24T02:50:34;100369.31;;;6.94;100.00
76547;BME280;65390;53.014;8.886;2022-12-24T02:53:00;100365.78;;;6.93;100.00
76547;BME280;65390;53.014;8.886;2022-12-24T02:55:49;100376.06;;;7.00;100.00
76547;BME280;65390;53.014;8.886;2022-12-24T03:07:25;100400.44;;;6.78;100.00
76547;BME280;65390;53.014;8.886;2022-12-24T03:12:38;100376.63;;;6.43;100.00
76547;BME280;65390;53.014;8.886;2022-12-24T03:15:08;100360.28;;;6.02;100.00
76547;BME280;65390;53.014;8.886;2022-12-24T03:17:36;100409.13;;;6.50;100.00
76547;BME280;65390;53.014;8.886;2022-12-24T03:20:04;100391.75;;;6.43;100.00
76547;BME280;65390;53.014;8.886;2022-12-24T03:22:32;100392.88;;;6.39;100.00
76547;BME280;65390;53.014;8.886;2022-12-24T03:24:58;100388.41;;;6.39;100.00
76547;BME280;65390;53.014;8.886;2022-12-24T03:27:28;100428.44;;;6.53;100.00
76547;BME280;65390;53.014;8.886;2022-12-24T03:29:55;100374.22;;;6.23;100.00
76547;BME280;65390;53.014;8.886;2022-12-24T03:32:27;100388.06;;;6.29;100.00
76547;BME280;65390;53.014;8.886;2022-12-24T03:34:54;100362.03;;;6.19;100.00
76547;BME280;65390;53.014;8.886;2022-12-24T03:37:20;100424.25;;;6.65;100.00
76547;BME280;65390;53.014;8.886;2022-12-24T03:39:48;100405.06;;;6.58;100.00
76547;BME280;65390;53.014;8.886;2022-12-24T03:42:14;100373.97;;;6.43;100.00
76547;BME280;65390;53.014;8.886;2022-12-24T03:44:39;100414.78;;;6.59;100.00
76547;BME280;65390;53.014;8.886;2022-12-24T03:47:07;100407.22;;;6.52;100.00
76547;BME280;65390;53.014;8.886;2022-12-24T03:49:34;100439.25;;;6.82;100.00
76547;BME280;65390;53.014;8.886;2022-12-24T03:52:00;100395.47;;;6.72;100.00
76547;BME280;65390;53.014;8.886;2022-12-24T03:54:26;100425.25;;;6.94;100.00
76547;BME280;65390;53.014;8.886;2022-12-24T03:56:56;100409.81;;;6.85;100.00
76547;BME280;65390;53.014;8.886;2022-12-24T03:59:22;100399.66;;;6.76;100.00
76547;BME280;65390;53.014;8.886;2022-12-24T04:01:47;100414.69;;;6.77;100.00
76547;BME280;65390;53.014;8.886;2022-12-24T04:04:13;100392.13;;;6.68;100.00
76547;BME280;65390;53.014;8.886;2022-12-24T04:06:38;100396.13;;;6.75;100.00
76547;BME280;65390;53.014;8.886;2022-12-24T04:09:04;100413.56;;;6.81;100.00
76547;BME280;65390;53.014;8.886;2022-12-24T04:11:30;100448.25;;;7.11;100.00
76547;BME280;65390;53.014;8.886;2022-12-24T04:13:56;100427.63;;;6.98;100.00
76547;BME280;65390;53.014;8.886;2022-12-24T04:16:22;100425.25;;;6.94;100.00
76547;BME280;65390;53.014;8.886;2022-12-24T04:18:48;100434.16;;;7.09;100.00
76547;BME280;65390;53.014;8.886;2022-12-24T04:21:13;100417.50;;;7.05;100.00
76547;BME280;65390;53.014;8.886;2022-12-24T04:23:40;100443.78;;;7.27;100.00
76547;BME280;65390;53.014;8.886;2022-12-24T04:26:12;100461.63;;;7.41;100.00
76547;BME280;65390;53.014;8.886;2022-12-24T04:28:38;100421.88;;;7.22;100.00
76547;BME280;65390;53.014;8.886;2022-12-24T04:31:10;100471.56;;;7.53;100.00
76547;BME280;65390;53.014;8.886;2022-12-24T04:33:36;100426.16;;;7.24;100.00
76547;BME280;65390;53.014;8.886;2022-12-24T04:36:10;100450.53;;;7.33;100.00
76547;BME280;65390;53.014;8.886;2022-12-24T04:38:36;100422.56;;;7.10;100.00
76547;BME280;65390;53.014;8.886;2022-12-24T04:41:06;100490.09;;;7.40;100.00
76547;BME280;65390;53.014;8.886;2022-12-24T04:43:34;100487.16;;;7.45;100.00
76547;BME280;65390;53.014;8.886;2022-12-24T04:46:11;100457.94;;;7.27;100.00
76547;BME280;65390;53.014;8.886;2022-12-24T04:48:42;100454.03;;;7.19;100.00
76547;BME280;65390;53.014;8.886;2022-12-24T04:51:09;100499.72;;;7.43;100.00
76547;BME280;65390;53.014;8.886;2022-12-24T04:53:35;100484.25;;;7.34;100.00
76547;BME280;65390;53.014;8.886;2022-12-24T04:56:01;100498.97;;;7.41;100.00
76547;BME280;65390;53.014;8.886;2022-12-24T04:58:29;100488.72;;;7.33;100.00
76547;BME280;65390;53.014;8.886;2022-12-24T05:00:55;100464.44;;;7.08;100.00
76547;BME280;65390;53.014;8.886;2022-12-24T05:03:20;100464.16;;;7.12;100.00
76547;BME280;65390;53.014;8.886;2022-12-24T05:05:46;100480.50;;;7.22;100.00
76547;BME280;65390;53.014;8.886;2022-12-24T05:08:12;100497.16;;;7.10;100.00
76547;BME280;65390;53.014;8.886;2022-12-24T05:10:38;100447.50;;;6.93;100.00
76547;BME280;65390;53.014;8.886;2022-12-24T05:13:03;100468.91;;;7.07;100.00
76547;BME280;65390;53.014;8.886;2022-12-24T05:15:29;100497.59;;;7.18;100.00
76547;BME280;65390;53.014;8.886;2022-12-24T05:18:04;100479.91;;;7.01;100.00
76547;BME280;65390;53.014;8.886;2022-12-24T05:20:33;100490.03;;;6.79;100.00
76547;BME280;65390;53.014;8.886;2022-12-24T05:23:01;100488.31;;;6.78;100.00
76547;BME280;65390;53.014;8.886;2022-12-24T05:25:48;100485.56;;;6.79;100.00
76547;BME280;65390;53.014;8.886;2022-12-24T05:28:48;100496.81;;;7.00;100.00
76547;BME280;65390;53.014;8.886;2022-12-24T05:31:17;100496.66;;;6.72;100.00
76547;BME280;65390;53.014;8.886;2022-12-24T05:33:43;100508.50;;;6.82;100.00
76547;BME280;65390;53.014;8.886;2022-12-24T05:36:12;100509.63;;;6.93;100.00
76547;BME280;65390;53.014;8.886;2022-12-24T05:38:39;100532.16;;;7.04;100.00
76547;BME280;65390;53.014;8.886;2022-12-24T05:41:08;100501.91;;;6.89;100.00
76547;BME280;65390;53.014;8.886;2022-12-24T05:43:40;100535.78;;;7.18;100.00
76547;BME280;65390;53.014;8.886;2022-12-24T05:46:13;100539.38;;;7.33;100.00
76547;BME280;65390;53.014;8.886;2022-12-24T05:48:41;100491.47;;;7.16;100.00
76547;BME280;65390;53.014;8.886;2022-12-24T05:51:20;100506.47;;;7.18;100.00
76547;BME280;65390;53.014;8.886;2022-12-24T05:54:08;100501.19;;;7.33;100.00
76547;BME280;65390;53.014;8.886;2022-12-24T05:56:42;100520.78;;;7.47;100.00
76547;BME280;65390;53.014;8.886;2022-12-24T05:59:15;100550.78;;;7.67;100.00
76547;BME280;65390;53.014;8.886;2022-12-24T06:01:43;100560.16;;;7.74;100.00
76547;BME280;65390;53.014;8.886;2022-12-24T06:04:16;100559.19;;;7.75;100.00
76547;BME280;65390;53.014;8.886;2022-12-24T06:06:50;100552.91;;;7.76;100.00
76547;BME280;65390;53.014;8.886;2022-12-24T06:09:16;100528.78;;;7.47;100.00
76547;BME280;65390;53.014;8.886;2022-12-24T06:12:00;100561.34;;;7.68;100.00
76547;BME280;65390;53.014;8.886;2022-12-24T06:14:37;100566.44;;;7.73;100.00
76547;BME280;65390;53.014;8.886;2022-12-24T06:17:08;100528.00;;;7.61;100.00
76547;BME280;65390;53.014;8.886;2022-12-24T06:20:19;100565.22;;;7.78;100.00
76547;BME280;65390;53.014;8.886;2022-12-24T06:22:55;100571.59;;;7.76;100.00
76547;BME280;65390;53.014;8.886;2022-12-24T06:25:41;100552.56;;;7.66;100.00
76547;BME280;65390;53.014;8.886;2022-12-24T06:28:12;100551.34;;;7.72;100.00
76547;BME280;65390;53.014;8.886;2022-12-24T06:30:59;100577.91;;;7.89;100.00
76547;BME280;65390;53.014;8.886;2022-12-24T06:33:29;100520.66;;;7.65;100.00
76547;BME280;65390;53.014;8.886;2022-12-24T06:36:16;100540.53;;;7.75;100.00
76547;BME280;65390;53.014;8.886;2022-12-24T06:38:49;100564.75;;;7.86;100.00
76547;BME280;65390;53.014;8.886;2022-12-24T06:41:18;100579.28;;;7.96;100.00
76547;BME280;65390;53.014;8.886;2022-12-24T06:43:50;100598.53;;;8.01;100.00
76547;BME280;65390;53.014;8.886;2022-12-24T06:46:19;100542.59;;;7.70;100.00
76547;BME280;65390;53.014;8.886;2022-12-24T06:49:09;100552.16;;;7.74;100.00
76547;BME280;65390;53.014;8.886;2022-12-24T06:51:38;100553.25;;;7.70;100.00
76547;BME280;65390;53.014;8.886;2022-12-24T06:57:00;100608.53;;;7.98;100.00
76547;BME280;65390;53.014;8.886;2022-12-24T06:59:34;100576.06;;;7.75;100.00
76547;BME280;65390;53.014;8.886;2022-12-24T07:02:01;100622.25;;;7.92;100.00
76547;BME280;65390;53.014;8.886;2022-12-24T07:04:28;100595.44;;;7.63;100.00
76547;BME280;65390;53.014;8.886;2022-12-24T07:06:56;100631.13;;;7.76;100.00
76547;BME280;65390;53.014;8.886;2022-12-24T07:09:25;100606.97;;;7.48;100.00
76547;BME280;65390;53.014;8.886;2022-12-24T07:12:00;100643.16;;;7.68;100.00
76547;BME280;65390;53.014;8.886;2022-12-24T07:14:25;100642.94;;;7.56;100.00
76547;BME280;65390;53.014;8.886;2022-12-24T07:16:56;100662.00;;;7.65;100.00
76547;BME280;65390;53.014;8.886;2022-12-24T07:19:36;100638.72;;;7.37;100.00
76547;BME280;65390;53.014;8.886;2022-12-24T07:22:08;100669.50;;;7.58;100.00
76547;BME280;65390;53.014;8.886;2022-12-24T07:24:39;100639.31;;;7.42;100.00
76547;BME280;65390;53.014;8.886;2022-12-24T07:27:07;100636.56;;;7.43;100.00
76547;BME280;65390;53.014;8.886;2022-12-24T07:29:36;100628.28;;;7.32;100.00
76547;BME280;65390;53.014;8.886;2022-12-24T07:32:19;100633.59;;;7.32;100.00
76547;BME280;65390;53.014;8.886;2022-12-24T07:34:52;100676.81;;;7.70;100.00
76547;BME280;65390;53.014;8.886;2022-12-24T07:37:26;100636.81;;;7.54;100.00
76547;BME280;65390;53.014;8.886;2022-12-24T07:40:02;100657.91;;;7.75;100.00
76547;BME280;65390;53.014;8.886;2022-12-24T07:42:42;100663.47;;;7.70;100.00
76547;BME280;65390;53.014;8.886;2022-12-24T07:45:12;100673.38;;;7.68;100.00
76547;BME280;65390;53.014;8.886;2022-12-24T07:47:40;100703.66;;;7.99;100.00
76547;BME280;65390;53.014;8.886;2022-12-24T07:50:16;100649.34;;;7.68;100.00
76547;BME280;65390;53.014;8.886;2022-12-24T07:52:49;100681.91;;;7.91;100.00
76547;BME280;65390;53.014;8.886;2022-12-24T07:55:14;100711.75;;;8.13;100.00
76547;BME280;65390;53.014;8.886;2022-12-24T07:57:48;100675.44;;;7.95;100.00
76547;BME280;65390;53.014;8.886;2022-12-24T08:00:28;100712.16;;;8.05;100.00
76547;BME280;65390;53.014;8.886;2022-12-24T08:02:53;100674.50;;;7.80;100.00
76547;BME280;65390;53.014;8.886;2022-12-24T08:05:19;100681.28;;;7.85;100.00
76547;BME280;65390;53.014;8.886;2022-12-24T08:07:49;100733.44;;;8.07;100.00
76547;BME280;65390;53.014;8.886;2022-12-24T08:10:17;100740.16;;;7.98;100.00
76547;BME280;65390;53.014;8.886;2022-12-24T08:12:47;100739.03;;;8.02;100.00
76547;BME280;65390;53.014;8.886;2022-12-24T08:15:16;100738.72;;;8.08;100.00
76547;BME280;65390;53.014;8.886;2022-12-24T08:17:46;100742.66;;;8.17;100.00
76547;BME280;65390;53.014;8.886;2022-12-24T08:20:14;100734.28;;;8.07;100.00
76547;BME280;65390;53.014;8.886;2022-12-24T08:23:07;100731.97;;;8.17;100.00
76547;BME280;65390;53.014;8.886;2022-12-24T08:25:36;100709.78;;;8.01;100.00
76547;BME280;65390;53.014;8.886;2022-12-24T08:28:09;100751.00;;;8.11;100.00
76547;BME280;65390;53.014;8.886;2022-12-24T08:30:38;100754.88;;;8.05;100.00
76547;BME280;65390;53.014;8.886;2022-12-24T08:33:18;100699.72;;;7.74;100.00
76547;BME280;65390;53.014;8.886;2022-12-24T08:35:57;100766.31;;;8.07;100.00
76547;BME280;65390;53.014;8.886;2022-12-24T08:38:23;100718.31;;;7.76;100.00
76547;BME280;65390;53.014;8.886;2022-12-24T08:40:49;100731.66;;;7.92;100.00
76547;BME280;65390;53.014;8.886;2022-12-24T08:43:25;100756.94;;;8.00;100.00
76547;BME280;65390;53.014;8.886;2022-12-24T08:45:53;100790.97;;;8.12;100.00
76547;BME280;65390;53.014;8.886;2022-12-24T08:48:21;100752.47;;;8.01;100.00
76547;BME280;65390;53.014;8.886;2022-12-24T08:50:55;100739.03;;;8.02;100.00
76547;BME280;65390;53.014;8.886;2022-12-24T08:53:33;100795.28;;;8.46;100.00
76547;BME280;65390;53.014;8.886;2022-12-24T08:56:06;100782.09;;;8.43;100.00
76547;BME280;65390;53.014;8.886;2022-12-24T08:58:35;100799.91;;;8.43;100.00
76547;BME280;65390;53.014;8.886;2022-12-24T09:01:15;100762.78;;;8.23;100.00
76547;BME280;65390;53.014;8.886;2022-12-24T09:03:53;100811.53;;;8.58;100.00
76547;BME280;65390;53.014;8.886;2022-12-24T09:06:31;100791.91;;;8.43;100.00
76547;BME280;65390;53.014;8.886;2022-12-24T09:09:01;100766.66;;;8.33;100.00
76547;BME280;65390;53.014;8.886;2022-12-24T09:11:32;100782.53;;;8.36;100.00
76547;BME280;65390;53.014;8.886;2022-12-24T09:13:58;100775.81;;;8.29;100.00
76547;BME280;65390;53.014;8.886;2022-12-24T09:16:24;100791.13;;;8.41;100.00
76547;BME280;65390;53.014;8.886;2022-12-24T09:18:50;100835.06;;;8.67;100.00
76547;BME280;65390;53.014;8.886;2022-12-24T09:21:35;100815.06;;;8.58;100.00
76547;BME280;65390;53.014;8.886;2022-12-24T09:24:04;100809.22;;;8.52;100.00
76547;BME280;65390;53.014;8.886;2022-12-24T09:26:35;100816.19;;;8.70;100.00
76547;BME280;65390;53.014;8.886;2022-12-24T09:29:11;100817.28;;;8.82;100.00
76547;BME280;65390;53.014;8.886;2022-12-24T09:31:36;100793.06;;;8.85;100.00
76547;BME280;65390;53.014;8.886;2022-12-24T09:34:02;100837.13;;;9.07;100.00
76547;BME280;65390;53.014;8.886;2022-12-24T09:36:30;100857.53;;;9.24;100.00
76547;BME280;65390;53.014;8.886;2022-12-24T09:38:55;100830.97;;;9.21;100.00
76547;BME280;65390;53.014;8.886;2022-12-24T09:45:09;100873.13;;;9.46;100.00
76547;BME280;65390;53.014;8.886;2022-12-24T09:47:53;100877.91;;;9.41;100.00
76547;BME280;65390;53.014;8.886;2022-12-24T09:50:39;100884.16;;;9.26;100.00
76547;BME280;65390;53.014;8.886;2022-12-24T09:56:37;100868.97;;;8.96;100.00
76547;BME280;65390;53.014;8.886;2022-12-24T09:59:19;100882.56;;;9.07;100.00
76547;BME280;65390;53.014;8.886;2022-12-24T10:01:53;100905.25;;;9.16;100.00
76547;BME280;65390;53.014;8.886;2022-12-24T10:04:30;100907.06;;;9.16;100.00
76547;BME280;65390;53.014;8.886;2022-12-24T10:10:37;100897.16;;;9.32;100.00
76547;BME280;65390;53.014;8.886;2022-12-24T10:24:17;100902.13;;;9.54;100.00
76547;BME280;65390;53.014;8.886;2022-12-24T10:26:57;100921.00;;;9.51;100.00
76547;BME280;65390;53.014;8.886;2022-12-24T10:29:33;100900.50;;;9.21;100.00
76547;BME280;65390;53.014;8.886;2022-12-24T10:32:20;100931.94;;;9.32;100.00
76547;BME280;65390;53.014;8.886;2022-12-24T10:35:10;100875.03;;;8.84;100.00
76547;BME280;65390;53.014;8.886;2022-12-24T10:37:52;100935.19;;;9.07;100.00
76547;BME280;65390;53.014;8.886;2022-12-24T10:40:54;100922.50;;;8.95;100.00
76547;BME280;65390;53.014;8.886;2022-12-24T10:43:17;100927.94;;;9.09;100.00
76547;BME280;65390;53.014;8.886;2022-12-24T10:45:48;100935.25;;;9.21;100.00
76547;BME280;65390;53.014;8.886;2022-12-24T10:48:27;100934.69;;;9.30;100.00
76547;BME280;65390;53.014;8.886;2022-12-24T10:51:04;100906.13;;;9.17;100.00
76547;BME280;65390;53.014;8.886;2022-12-24T10:54:22;100928.25;;;9.34;100.00
76547;BME280;65390;53.014;8.886;2022-12-24T10:57:05;100934.03;;;9.11;100.00
76547;BME280;65390;53.014;8.886;2022-12-24T10:59:54;100923.81;;;9.03;100.00
76547;BME280;65390;53.014;8.886;2022-12-24T11:05:09;100956.72;;;9.50;100.00
76547;BME280;65390;53.014;8.886;2022-12-24T11:08:01;100915.72;;;9.35;100.00
76547;BME280;65390;53.014;8.886;2022-12-24T11:10:27;100936.81;;;9.55;100.00
76547;BME280;65390;53.014;8.886;2022-12-24T11:12:52;100935.09;;;9.54;100.00
76547;BME280;65390;53.014;8.886;2022-12-24T11:15:26;100917.41;;;9.52;100.00
76547;BME280;65390;53.014;8.886;2022-12-24T11:18:00;100955.00;;;9.79;100.00
76547;BME280;65390;53.014;8.886;2022-12-24T11:20:32;100934.63;;;9.62;100.00
76547;BME280;65390;53.014;8.886;2022-12-24T11:22:59;100952.56;;;9.60;100.00
76547;BME280;65390;53.014;8.886;2022-12-24T11:25:30;100910.16;;;9.24;100.00
76547;BME280;65390;53.014;8.886;2022-12-24T11:28:10;100949.41;;;9.53;100.00
76547;BME280;65390;53.014;8.886;2022-12-24T11:31:01;100918.84;;;9.27;100.00
76547;BME280;65390;53.014;8.886;2022-12-24T11:33:30;100915.41;;;9.25;100.00
76547;BME280;65390;53.014;8.886;2022-12-24T11:36:09;100953.78;;;9.24;100.00
76547;BME280;65390;53.014;8.886;2022-12-24T11:38:39;100896.06;;;8.90;100.00
76547;BME280;65390;53.014;8.886;2022-12-24T11:41:11;100914.50;;;8.95;100.00
76547;BME280;65390;53.014;8.886;2022-12-24T11:43:41;100910.06;;;9.09;100.00
76547;BME280;65390;53.014;8.886;2022-12-24T11:46:41;100905.28;;;9.00;100.00
76547;BME280;65390;53.014;8.886;2022-12-24T11:54:27;100952.16;;;9.22;100.00
76547;BME280;65390;53.014;8.886;2022-12-24T11:56:56;100948.94;;;9.31;100.00
76547;BME280;65390;53.014;8.886;2022-12-24T11:59:37;100917.59;;;9.19;100.00
76547;BME280;65390;53.014;8.886;2022-12-24T12:05:15;100953.81;;;9.68;100.00
76547;BME280;65390;53.014;8.886;2022-12-24T12:07:50;100958.25;;;9.84;100.00
76547;BME280;65390;53.014;8.886;2022-12-24T12:10:31;100957.22;;;9.72;100.00
76547;BME280;65390;53.014;8.886;2022-12-24T12:13:08;100962.50;;;9.58;100.00
76547;BME280;65390;53.014;8.886;2022-12-24T12:15:48;100957.84;;;9.61;100.00
76547;BME280;65390;53.014;8.886;2022-12-24T12:18:21;100911.06;;;9.38;100.00
76547;BME280;65390;53.014;8.886;2022-12-24T12:20:54;100941.31;;;9.55;100.00
76547;BME280;65390;53.014;8.886;2022-12-24T12:23:31;100910.25;;;9.52;100.00
76547;BME280;65390;53.014;8.886;2022-12-24T12:31:31;100982.44;;;9.82;100.00
76547;BME280;65390;53.014;8.886;2022-12-24T12:34:19;100970.41;;;9.75;100.00
76547;BME280;65390;53.014;8.886;2022-12-24T12:36:57;100971.78;;;9.66;100.00
76547;BME280;65390;53.014;8.886;2022-12-24T12:39:29;100988.03;;;9.93;100.00
76547;BME280;65390;53.014;8.886;2022-12-24T12:42:36;100991.75;;;9.91;100.00
76547;BME280;65390;53.014;8.886;2022-12-24T12:56:28;100967.16;;;10.28;100.00
76547;BME280;65390;53.014;8.886;2022-12-24T12:59:00;100983.72;;;10.35;100.00
76547;BME280;65390;53.014;8.886;2022-12-24T13:01:46;100981.88;;;10.21;100.00
76547;BME280;65390;53.014;8.886;2022-12-24T13:07:17;100995.78;;;10.28;100.00
76547;BME280;65390;53.014;8.886;2022-12-24T13:10:15;100987.50;;;10.17;100.00
76547;BME280;65390;53.014;8.886;2022-12-24T13:21:28;100984.19;;;10.27;100.00
76547;BME280;65390;53.014;8.886;2022-12-24T13:24:04;100994.06;;;10.41;100.00
76547;BME280;65390;53.014;8.886;2022-12-24T13:26:29;100983.25;;;10.28;100.00
76547;BME280;65390;53.014;8.886;2022-12-24T13:34:49;101022.28;;;10.03;100.00
76547;BME280;65390;53.014;8.886;2022-12-24T13:50:49;101030.78;;;10.25;100.00
76547;BME280;65390;53.014;8.886;2022-12-24T13:56:41;101002.88;;;10.13;100.00
76547;BME280;65390;53.014;8.886;2022-12-24T13:58:45;101033.56;;;10.23;100.00
76547;BME280;65390;53.014;8.886;2022-12-24T14:01:21;101025.56;;;10.08;100.00
76547;BME280;65390;53.014;8.886;2022-12-24T14:04:01;101023.03;;;10.05;100.00
76547;BME280;65390;53.014;8.886;2022-12-24T14:06:36;101022.84;;;9.93;100.00
76547;BME280;65390;53.014;8.886;2022-12-24T14:09:11;101038.44;;;10.01;100.00
76547;BME280;65390;53.014;8.886;2022-12-24T14:14:36;101023.03;;;9.90;100.00
76547;BME280;65390;53.014;8.886;2022-12-24T14:19:48;101032.81;;;9.76;100.00
76547;BME280;65390;53.014;8.886;2022-12-24T14:25:19;101062.25;;;9.76;100.00
76547;BME280;65390;53.014;8.886;2022-12-24T14:27:58;101035.28;;;9.49;100.00
76547;BME280;65390;53.014;8.886;2022-12-24T14:30:31;101079.78;;;9.65;100.00
76547;BME280;65390;53.014;8.886;2022-12-24T14:32:59;101031.25;;;9.26;100.00
76547;BME280;65390;53.014;8.886;2022-12-24T14:35:29;101059.88;;;9.24;100.00
76547;BME280;65390;53.014;8.886;2022-12-24T14:38:26;101067.91;;;9.24;100.00
76547;BME280;65390;53.014;8.886;2022-12-24T14:46:38;101093.00;;;9.05;100.00
76547;BME280;65390;53.014;8.886;2022-12-24T14:49:19;101122.16;;;9.10;100.00
76547;BME280;65390;53.014;8.886;2022-12-24T14:52:12;101102.88;;;8.88;100.00
76547;BME280;65390;53.014;8.886;2022-12-24T14:54:42;101091.47;;;8.68;100.00
76547;BME280;65390;53.014;8.886;2022-12-24T15:02:46;101119.09;;;8.85;100.00
76547;BME280;65390;53.014;8.886;2022-12-24T15:05:23;101112.19;;;8.81;100.00
76547;BME280;65390;53.014;8.886;2022-12-24T15:07:57;101102.41;;;8.64;100.00
76547;BME280;65390;53.014;8.886;2022-12-24T15:12:56;101133.47;;;8.82;100.00
76547;BME280;65390;53.014;8.886;2022-12-24T15:15:22;101151.88;;;8.71;100.00
76547;BME280;65390;53.014;8.886;2022-12-24T15:17:48;101134.06;;;8.54;100.00
76547;BME280;65390;53.014;8.886;2022-12-24T15:20:16;101127.25;;;8.48;100.00
76547;BME280;65390;53.014;8.886;2022-12-24T15:22:43;101149.75;;;8.60;100.00
76547;BME280;65390;53.014;8.886;2022-12-24T15:25:35;101175.22;;;8.67;100.00
76547;BME280;65390;53.014;8.886;2022-12-24T15:28:00;101139.72;;;8.48;100.00
76547;BME280;65390;53.014;8.886;2022-12-24T15:30:27;101162.41;;;8.39;100.00
76547;BME280;65390;53.014;8.886;2022-12-24T15:32:55;101179.16;;;8.43;100.00
76547;BME280;65390;53.014;8.886;2022-12-24T15:35:42;101172.91;;;8.25;100.00
76547;BME280;65390;53.014;8.886;2022-12-24T15:38:32;101178.16;;;8.45;100.00
76547;BME280;65390;53.014;8.886;2022-12-24T15:41:01;101170.50;;;8.38;100.00
76547;BME280;65390;53.014;8.886;2022-12-24T15:43:29;101154.78;;;8.32;100.00
76547;BME280;65390;53.014;8.886;2022-12-24T15:45:55;101171.97;;;8.26;100.00
76547;BME280;65390;53.014;8.886;2022-12-24T15:48:23;101176.97;;;8.15;100.00
76547;BME280;65390;53.014;8.886;2022-12-24T15:50:53;101188.91;;;8.08;100.00
76547;BME280;65390;53.014;8.886;2022-12-24T15:53:26;101177.44;;;8.06;100.00